sensor_id;sensor_type;location;lat;lon;timestamp;P1;durP1;ratioP1;P2;durP2;ratioP2
54517;SDS011;40423;53.176;6.002;2023-07-28T00:02:10;27.30;;;12.55;;
54517;SDS011;40423;53.176;6.002;2023-07-28T00:04:36;26.15;;;12.63;;
54517;SDS011;40423;53.176;6.002;2023-07-28T00:07:02;24.52;;;11.15;;
54517;SDS011;40423;53.176;6.002;2023-07-28T00:09:28;27.70;;;11.82;;
54517;SDS011;40423;53.176;6.002;2023-07-28T00:11:56;23.95;;;11.75;;
54517;SDS011;40423;53.176;6.002;2023-07-28T00:14:23;31.85;;;12.73;;
54517;SDS011;40423;53.176;6.002;2023-07-28T00:16:50;25.90;;;12.68;;
54517;SDS011;40423;53.176;6.002;2023-07-28T00:19:20;29.08;;;12.85;;
54517;SDS011;40423;53.176;6.002;2023-07-28T00:21:48;22.88;;;12.48;;
54517;SDS011;40423;53.176;6.002;2023-07-28T00:24:15;24.05;;;11.82;;
54517;SDS011;40423;53.176;6.002;2023-07-28T00:26:42;24.52;;;12.75;;
54517;SDS011;40423;53.176;6.002;2023-07-28T00:29:07;24.88;;;12.65;;
54517;SDS011;40423;53.176;6.002;2023-07-28T00:31:33;22.20;;;11.43;;
54517;SDS011;40423;53.176;6.002;2023-07-28T00:33:59;26.67;;;12.63;;
54517;SDS011;40423;53.176;6.002;2023-07-28T00:36:26;23.27;;;11.60;;
54517;SDS011;40423;53.176;6.002;2023-07-28T00:38:52;27.08;;;12.90;;
54517;SDS011;40423;53.176;6.002;2023-07-28T00:41:18;22.88;;;12.02;;
54517;SDS011;40423;53.176;6.002;2023-07-28T00:43:44;25.40;;;13.63;;
54517;SDS011;40423;53.176;6.002;2023-07-28T00:46:10;25.63;;;13.52;;
54517;SDS011;40423;53.176;6.002;2023-07-28T00:48:36;29.42;;;13.70;;
54517;SDS011;40423;53.176;6.002;2023-07-28T00:51:02;27.70;;;14.95;;
54517;SDS011;40423;53.176;6.002;2023-07-28T00:53:28;27.25;;;15.50;;
54517;SDS011;40423;53.176;6.002;2023-07-28T00:55:55;27.67;;;14.38;;
54517;SDS011;40423;53.176;6.002;2023-07-28T00:58:21;35.45;;;16.55;;
54517;SDS011;40423;53.176;6.002;2023-07-28T01:00:47;30.17;;;15.77;;
54517;SDS011;40423;53.176;6.002;2023-07-28T01:03:14;37.33;;;15.55;;
54517;SDS011;40423;53.176;6.002;2023-07-28T01:08:49;33.17;;;15.65;;
54517;SDS011;40423;53.176;6.002;2023-07-28T01:11:35;31.48;;;15.77;;
54517;SDS011;40423;53.176;6.002;2023-07-28T01:14:01;30.25;;;15.93;;
54517;SDS011;40423;53.176;6.002;2023-07-28T01:16:27;36.10;;;17.95;;
54517;SDS011;40423;53.176;6.002;2023-07-28T01:18:55;32.75;;;15.65;;
54517;SDS011;40423;53.176;6.002;2023-07-28T01:21:22;34.75;;;15.98;;
54517;SDS011;40423;53.176;6.002;2023-07-28T01:26:51;34.33;;;16.70;;
54517;SDS011;40423;53.176;6.002;2023-07-28T01:29:16;38.38;;;16.73;;
54517;SDS011;40423;53.176;6.002;2023-07-28T01:31:45;34.17;;;17.20;;
54517;SDS011;40423;53.176;6.002;2023-07-28T01:34:16;29.30;;;15.10;;
54517;SDS011;40423;53.176;6.002;2023-07-28T01:36:41;34.40;;;15.52;;
54517;SDS011;40423;53.176;6.002;2023-07-28T01:39:07;29.05;;;15.20;;
54517;SDS011;40423;53.176;6.002;2023-07-28T01:41:33;23.98;;;14.10;;
54517;SDS011;40423;53.176;6.002;2023-07-28T01:43:58;28.88;;;14.50;;
54517;SDS011;40423;53.176;6.002;2023-07-28T01:46:24;24.50;;;12.50;;
54517;SDS011;40423;53.176;6.002;2023-07-28T01:48:50;31.40;;;12.70;;
54517;SDS011;40423;53.176;6.002;2023-07-28T01:51:19;26.30;;;13.75;;
54517;SDS011;40423;53.176;6.002;2023-07-28T01:53:44;29.77;;;13.65;;
54517;SDS011;40423;53.176;6.002;2023-07-28T01:56:10;26.90;;;13.20;;
54517;SDS011;40423;53.176;6.002;2023-07-28T01:58:36;31.75;;;13.00;;
54517;SDS011;40423;53.176;6.002;2023-07-28T02:01:01;28.63;;;11.82;;
54517;SDS011;40423;53.176;6.002;2023-07-28T02:03:27;22.95;;;12.05;;
54517;SDS011;40423;53.176;6.002;2023-07-28T02:05:53;35.80;;;12.95;;
54517;SDS011;40423;53.176;6.002;2023-07-28T02:08:19;30.80;;;13.15;;
54517;SDS011;40423;53.176;6.002;2023-07-28T02:10:45;27.25;;;11.40;;
54517;SDS011;40423;53.176;6.002;2023-07-28T02:13:10;24.90;;;10.60;;
54517;SDS011;40423;53.176;6.002;2023-07-28T02:15:36;26.92;;;11.38;;
54517;SDS011;40423;53.176;6.002;2023-07-28T02:18:02;28.13;;;10.23;;
54517;SDS011;40423;53.176;6.002;2023-07-28T02:20:28;25.33;;;10.23;;
54517;SDS011;40423;53.176;6.002;2023-07-28T02:22:53;29.45;;;9.90;;
54517;SDS011;40423;53.176;6.002;2023-07-28T02:25:19;23.13;;;10.20;;
54517;SDS011;40423;53.176;6.002;2023-07-28T02:27:45;28.23;;;10.10;;
54517;SDS011;40423;53.176;6.002;2023-07-28T02:30:11;19.48;;;8.20;;
54517;SDS011;40423;53.176;6.002;2023-07-28T02:32:36;22.70;;;9.18;;
54517;SDS011;40423;53.176;6.002;2023-07-28T02:35:02;28.90;;;9.10;;
54517;SDS011;40423;53.176;6.002;2023-07-28T02:37:28;19.13;;;8.30;;
54517;SDS011;40423;53.176;6.002;2023-07-28T02:39:54;25.63;;;8.73;;
54517;SDS011;40423;53.176;6.002;2023-07-28T02:42:20;23.25;;;8.52;;
54517;SDS011;40423;53.176;6.002;2023-07-28T02:44:46;19.67;;;7.75;;
54517;SDS011;40423;53.176;6.002;2023-07-28T02:47:11;27.58;;;10.10;;
54517;SDS011;40423;53.176;6.002;2023-07-28T02:49:37;23.42;;;8.73;;
54517;SDS011;40423;53.176;6.002;2023-07-28T02:52:03;24.77;;;7.60;;
54517;SDS011;40423;53.176;6.002;2023-07-28T02:54:29;22.05;;;7.72;;
54517;SDS011;40423;53.176;6.002;2023-07-28T02:56:54;24.20;;;8.50;;
54517;SDS011;40423;53.176;6.002;2023-07-28T02:59:21;26.73;;;9.18;;
54517;SDS011;40423;53.176;6.002;2023-07-28T03:01:48;17.15;;;7.13;;
54517;SDS011;40423;53.176;6.002;2023-07-28T03:04:17;21.10;;;8.15;;
54517;SDS011;40423;53.176;6.002;2023-07-28T03:06:44;21.58;;;6.88;;
54517;SDS011;40423;53.176;6.002;2023-07-28T03:09:09;18.75;;;7.07;;
54517;SDS011;40423;53.176;6.002;2023-07-28T03:11:36;23.00;;;8.05;;
54517;SDS011;40423;53.176;6.002;2023-07-28T03:14:02;18.60;;;7.25;;
54517;SDS011;40423;53.176;6.002;2023-07-28T03:16:27;20.55;;;7.28;;
54517;SDS011;40423;53.176;6.002;2023-07-28T03:18:53;23.60;;;7.40;;
54517;SDS011;40423;53.176;6.002;2023-07-28T03:21:19;25.95;;;7.43;;
54517;SDS011;40423;53.176;6.002;2023-07-28T03:23:44;22.20;;;7.00;;
54517;SDS011;40423;53.176;6.002;2023-07-28T03:26:10;18.90;;;6.95;;
54517;SDS011;40423;53.176;6.002;2023-07-28T03:28:36;17.48;;;7.05;;
54517;SDS011;40423;53.176;6.002;2023-07-28T03:31:01;19.52;;;6.97;;
54517;SDS011;40423;53.176;6.002;2023-07-28T03:33:27;24.42;;;7.30;;
54517;SDS011;40423;53.176;6.002;2023-07-28T03:35:53;25.92;;;7.18;;
54517;SDS011;40423;53.176;6.002;2023-07-28T03:38:19;20.38;;;7.43;;
54517;SDS011;40423;53.176;6.002;2023-07-28T03:40:44;15.38;;;6.80;;
54517;SDS011;40423;53.176;6.002;2023-07-28T03:43:10;19.70;;;6.68;;
54517;SDS011;40423;53.176;6.002;2023-07-28T03:45:36;15.75;;;6.45;;
54517;SDS011;40423;53.176;6.002;2023-07-28T03:48:02;18.27;;;6.70;;
54517;SDS011;40423;53.176;6.002;2023-07-28T03:50:27;17.92;;;6.43;;
54517;SDS011;40423;53.176;6.002;2023-07-28T03:52:53;25.27;;;6.97;;
54517;SDS011;40423;53.176;6.002;2023-07-28T03:55:22;23.33;;;8.40;;
54517;SDS011;40423;53.176;6.002;2023-07-28T03:57:47;17.55;;;7.22;;
54517;SDS011;40423;53.176;6.002;2023-07-28T04:00:13;16.08;;;7.05;;
54517;SDS011;40423;53.176;6.002;2023-07-28T04:02:39;13.52;;;6.05;;
54517;SDS011;40423;53.176;6.002;2023-07-28T04:05:05;20.50;;;7.78;;
54517;SDS011;40423;53.176;6.002;2023-07-28T04:07:31;16.25;;;6.13;;
54517;SDS011;40423;53.176;6.002;2023-07-28T04:09:56;15.27;;;6.63;;
54517;SDS011;40423;53.176;6.002;2023-07-28T04:12:22;14.70;;;7.30;;
54517;SDS011;40423;53.176;6.002;2023-07-28T04:14:48;14.40;;;6.32;;
54517;SDS011;40423;53.176;6.002;2023-07-28T04:17:13;18.45;;;7.07;;
54517;SDS011;40423;53.176;6.002;2023-07-28T04:19:39;15.75;;;6.82;;
54517;SDS011;40423;53.176;6.002;2023-07-28T04:22:05;15.82;;;7.05;;
54517;SDS011;40423;53.176;6.002;2023-07-28T04:24:31;17.00;;;6.35;;
54517;SDS011;40423;53.176;6.002;2023-07-28T04:26:57;10.82;;;5.35;;
54517;SDS011;40423;53.176;6.002;2023-07-28T04:29:22;12.95;;;6.20;;
54517;SDS011;40423;53.176;6.002;2023-07-28T04:31:48;12.70;;;5.95;;
54517;SDS011;40423;53.176;6.002;2023-07-28T04:34:14;10.88;;;5.63;;
54517;SDS011;40423;53.176;6.002;2023-07-28T04:36:39;19.38;;;8.02;;
54517;SDS011;40423;53.176;6.002;2023-07-28T04:39:05;15.93;;;6.07;;
54517;SDS011;40423;53.176;6.002;2023-07-28T04:41:31;14.23;;;6.47;;
54517;SDS011;40423;53.176;6.002;2023-07-28T04:43:56;16.63;;;7.28;;
54517;SDS011;40423;53.176;6.002;2023-07-28T04:46:22;14.25;;;6.55;;
54517;SDS011;40423;53.176;6.002;2023-07-28T04:48:48;14.07;;;8.02;;
54517;SDS011;40423;53.176;6.002;2023-07-28T04:51:13;15.05;;;7.82;;
54517;SDS011;40423;53.176;6.002;2023-07-28T04:53:39;16.08;;;7.82;;
54517;SDS011;40423;53.176;6.002;2023-07-28T04:56:05;15.20;;;7.80;;
54517;SDS011;40423;53.176;6.002;2023-07-28T04:58:33;13.77;;;6.32;;
54517;SDS011;40423;53.176;6.002;2023-07-28T05:00:59;10.75;;;7.28;;
54517;SDS011;40423;53.176;6.002;2023-07-28T05:03:26;19.85;;;8.63;;
54517;SDS011;40423;53.176;6.002;2023-07-28T05:05:52;15.77;;;8.52;;
54517;SDS011;40423;53.176;6.002;2023-07-28T05:08:17;12.55;;;8.32;;
54517;SDS011;40423;53.176;6.002;2023-07-28T05:10:43;17.42;;;9.43;;
54517;SDS011;40423;53.176;6.002;2023-07-28T05:13:09;18.27;;;10.52;;
54517;SDS011;40423;53.176;6.002;2023-07-28T05:15:34;20.48;;;10.68;;
54517;SDS011;40423;53.176;6.002;2023-07-28T05:18:00;15.05;;;10.77;;
54517;SDS011;40423;53.176;6.002;2023-07-28T05:20:26;14.65;;;11.23;;
54517;SDS011;40423;53.176;6.002;2023-07-28T05:22:51;17.88;;;10.40;;
54517;SDS011;40423;53.176;6.002;2023-07-28T05:25:17;16.08;;;10.63;;
54517;SDS011;40423;53.176;6.002;2023-07-28T05:27:43;14.95;;;10.65;;
54517;SDS011;40423;53.176;6.002;2023-07-28T05:30:09;14.95;;;11.90;;
54517;SDS011;40423;53.176;6.002;2023-07-28T05:32:37;14.50;;;12.73;;
54517;SDS011;40423;53.176;6.002;2023-07-28T05:35:03;17.73;;;11.75;;
54517;SDS011;40423;53.176;6.002;2023-07-28T05:37:29;15.82;;;12.68;;
54517;SDS011;40423;53.176;6.002;2023-07-28T05:39:58;18.40;;;13.88;;
54517;SDS011;40423;53.176;6.002;2023-07-28T05:42:23;14.98;;;11.32;;
54517;SDS011;40423;53.176;6.002;2023-07-28T05:44:50;16.98;;;13.07;;
54517;SDS011;40423;53.176;6.002;2023-07-28T05:47:18;15.45;;;12.85;;
54517;SDS011;40423;53.176;6.002;2023-07-28T05:49:43;17.33;;;12.52;;
54517;SDS011;40423;53.176;6.002;2023-07-28T05:52:09;17.30;;;11.82;;
54517;SDS011;40423;53.176;6.002;2023-07-28T05:54:35;15.05;;;12.85;;
54517;SDS011;40423;53.176;6.002;2023-07-28T05:57:00;19.10;;;12.25;;
54517;SDS011;40423;53.176;6.002;2023-07-28T05:59:26;16.52;;;12.98;;
54517;SDS011;40423;53.176;6.002;2023-07-28T06:01:52;16.88;;;14.65;;
54517;SDS011;40423;53.176;6.002;2023-07-28T06:04:17;14.85;;;13.02;;
54517;SDS011;40423;53.176;6.002;2023-07-28T06:06:43;15.88;;;13.00;;
54517;SDS011;40423;53.176;6.002;2023-07-28T06:09:09;14.38;;;12.57;;
54517;SDS011;40423;53.176;6.002;2023-07-28T06:11:34;15.57;;;13.23;;
54517;SDS011;40423;53.176;6.002;2023-07-28T06:14:00;15.52;;;11.73;;
54517;SDS011;40423;53.176;6.002;2023-07-28T06:16:26;14.55;;;13.00;;
54517;SDS011;40423;53.176;6.002;2023-07-28T06:18:52;13.80;;;11.57;;
54517;SDS011;40423;53.176;6.002;2023-07-28T06:21:17;16.27;;;12.30;;
54517;SDS011;40423;53.176;6.002;2023-07-28T06:23:43;12.60;;;11.23;;
54517;SDS011;40423;53.176;6.002;2023-07-28T06:26:09;14.18;;;12.70;;
54517;SDS011;40423;53.176;6.002;2023-07-28T06:28:34;18.38;;;13.98;;
54517;SDS011;40423;53.176;6.002;2023-07-28T06:31:00;14.30;;;12.73;;
54517;SDS011;40423;53.176;6.002;2023-07-28T06:33:27;14.23;;;11.75;;
54517;SDS011;40423;53.176;6.002;2023-07-28T06:35:54;11.27;;;10.10;;
54517;SDS011;40423;53.176;6.002;2023-07-28T06:38:19;11.43;;;10.23;;
54517;SDS011;40423;53.176;6.002;2023-07-28T06:40:45;13.32;;;11.43;;
54517;SDS011;40423;53.176;6.002;2023-07-28T06:43:11;11.75;;;10.32;;
54517;SDS011;40423;53.176;6.002;2023-07-28T06:45:37;12.52;;;11.15;;
54517;SDS011;40423;53.176;6.002;2023-07-28T06:48:03;12.82;;;11.52;;
54517;SDS011;40423;53.176;6.002;2023-07-28T06:50:29;12.60;;;11.27;;
54517;SDS011;40423;53.176;6.002;2023-07-28T06:52:55;13.07;;;11.77;;
54517;SDS011;40423;53.176;6.002;2023-07-28T06:55:20;13.80;;;12.40;;
54517;SDS011;40423;53.176;6.002;2023-07-28T06:57:47;14.85;;;12.13;;
54517;SDS011;40423;53.176;6.002;2023-07-28T07:00:13;12.55;;;10.98;;
54517;SDS011;40423;53.176;6.002;2023-07-28T07:02:39;13.50;;;10.50;;
54517;SDS011;40423;53.176;6.002;2023-07-28T07:05:05;12.52;;;11.23;;
54517;SDS011;40423;53.176;6.002;2023-07-28T07:07:32;12.43;;;10.60;;
54517;SDS011;40423;53.176;6.002;2023-07-28T07:09:58;13.95;;;12.38;;
54517;SDS011;40423;53.176;6.002;2023-07-28T07:12:24;15.00;;;13.43;;
54517;SDS011;40423;53.176;6.002;2023-07-28T07:14:50;15.35;;;13.63;;
54517;SDS011;40423;53.176;6.002;2023-07-28T07:17:16;15.43;;;13.82;;
54517;SDS011;40423;53.176;6.002;2023-07-28T07:19:42;14.98;;;13.38;;
54517;SDS011;40423;53.176;6.002;2023-07-28T07:22:08;16.20;;;14.23;;
54517;SDS011;40423;53.176;6.002;2023-07-28T07:24:34;15.52;;;14.02;;
54517;SDS011;40423;53.176;6.002;2023-07-28T07:27:00;14.35;;;12.30;;
54517;SDS011;40423;53.176;6.002;2023-07-28T07:29:26;15.00;;;13.45;;
54517;SDS011;40423;53.176;6.002;2023-07-28T07:31:52;18.58;;;15.32;;
54517;SDS011;40423;53.176;6.002;2023-07-28T07:34:21;16.30;;;14.55;;
54517;SDS011;40423;53.176;6.002;2023-07-28T07:36:48;17.63;;;13.98;;
54517;SDS011;40423;53.176;6.002;2023-07-28T07:39:14;14.95;;;13.35;;
54517;SDS011;40423;53.176;6.002;2023-07-28T07:41:40;13.55;;;12.15;;
54517;SDS011;40423;53.176;6.002;2023-07-28T07:44:08;14.05;;;11.95;;
54517;SDS011;40423;53.176;6.002;2023-07-28T07:46:34;14.15;;;12.02;;
54517;SDS011;40423;53.176;6.002;2023-07-28T07:48:59;13.20;;;11.82;;
54517;SDS011;40423;53.176;6.002;2023-07-28T07:51:25;13.73;;;12.32;;
54517;SDS011;40423;53.176;6.002;2023-07-28T07:53:51;13.30;;;11.80;;
54517;SDS011;40423;53.176;6.002;2023-07-28T07:56:16;12.82;;;11.23;;
54517;SDS011;40423;53.176;6.002;2023-07-28T07:58:43;12.88;;;11.55;;
54517;SDS011;40423;53.176;6.002;2023-07-28T08:01:09;12.50;;;11.10;;
54517;SDS011;40423;53.176;6.002;2023-07-28T08:03:34;12.80;;;11.52;;
54517;SDS011;40423;53.176;6.002;2023-07-28T08:06:03;10.45;;;9.35;;
54517;SDS011;40423;53.176;6.002;2023-07-28T08:08:29;11.88;;;9.15;;
54517;SDS011;40423;53.176;6.002;2023-07-28T08:10:55;15.25;;;11.20;;
54517;SDS011;40423;53.176;6.002;2023-07-28T08:13:21;13.90;;;12.25;;
54517;SDS011;40423;53.176;6.002;2023-07-28T08:15:49;12.07;;;10.07;;
54517;SDS011;40423;53.176;6.002;2023-07-28T08:18:14;10.35;;;9.32;;
54517;SDS011;40423;53.176;6.002;2023-07-28T08:20:40;9.77;;;8.73;;
54517;SDS011;40423;53.176;6.002;2023-07-28T08:23:06;10.63;;;8.55;;
54517;SDS011;40423;53.176;6.002;2023-07-28T08:25:33;10.88;;;9.45;;
54517;SDS011;40423;53.176;6.002;2023-07-28T08:27:59;9.73;;;8.80;;
54517;SDS011;40423;53.176;6.002;2023-07-28T08:30:25;10.07;;;8.25;;
54517;SDS011;40423;53.176;6.002;2023-07-28T08:32:51;10.45;;;9.32;;
54517;SDS011;40423;53.176;6.002;2023-07-28T08:35:17;10.02;;;8.13;;
54517;SDS011;40423;53.176;6.002;2023-07-28T08:37:46;10.27;;;8.23;;
54517;SDS011;40423;53.176;6.002;2023-07-28T08:40:11;10.55;;;9.23;;
54517;SDS011;40423;53.176;6.002;2023-07-28T08:42:38;7.47;;;6.78;;
54517;SDS011;40423;53.176;6.002;2023-07-28T08:45:05;7.78;;;7.05;;
54517;SDS011;40423;53.176;6.002;2023-07-28T08:47:32;8.63;;;7.57;;
54517;SDS011;40423;53.176;6.002;2023-07-28T08:49:58;8.82;;;6.85;;
54517;SDS011;40423;53.176;6.002;2023-07-28T08:52:23;10.65;;;7.47;;
54517;SDS011;40423;53.176;6.002;2023-07-28T08:54:50;7.93;;;6.63;;
54517;SDS011;40423;53.176;6.002;2023-07-28T08:57:16;6.78;;;6.07;;
54517;SDS011;40423;53.176;6.002;2023-07-28T08:59:42;8.20;;;7.35;;
54517;SDS011;40423;53.176;6.002;2023-07-28T09:02:14;8.65;;;6.55;;
54517;SDS011;40423;53.176;6.002;2023-07-28T09:04:44;9.40;;;6.50;;
54517;SDS011;40423;53.176;6.002;2023-07-28T09:07:11;8.40;;;5.80;;
54517;SDS011;40423;53.176;6.002;2023-07-28T09:09:38;7.97;;;5.80;;
54517;SDS011;40423;53.176;6.002;2023-07-28T09:12:05;6.30;;;5.50;;
54517;SDS011;40423;53.176;6.002;2023-07-28T09:14:35;7.05;;;5.43;;
54517;SDS011;40423;53.176;6.002;2023-07-28T09:17:11;6.75;;;4.82;;
54517;SDS011;40423;53.176;6.002;2023-07-28T09:19:50;6.55;;;5.13;;
54517;SDS011;40423;53.176;6.002;2023-07-28T09:22:16;5.20;;;4.70;;
54517;SDS011;40423;53.176;6.002;2023-07-28T09:24:43;5.95;;;5.00;;
54517;SDS011;40423;53.176;6.002;2023-07-28T09:27:12;4.18;;;3.75;;
54517;SDS011;40423;53.176;6.002;2023-07-28T09:29:52;4.97;;;3.85;;
54517;SDS011;40423;53.176;6.002;2023-07-28T09:32:30;3.80;;;3.42;;
54517;SDS011;40423;53.176;6.002;2023-07-28T09:35:05;4.82;;;3.55;;
54517;SDS011;40423;53.176;6.002;2023-07-28T09:37:42;4.95;;;3.50;;
54517;SDS011;40423;53.176;6.002;2023-07-28T09:40:11;3.78;;;3.33;;
54517;SDS011;40423;53.176;6.002;2023-07-28T09:42:38;5.32;;;3.63;;
54517;SDS011;40423;53.176;6.002;2023-07-28T09:45:05;5.35;;;3.58;;
54517;SDS011;40423;53.176;6.002;2023-07-28T09:47:33;5.38;;;3.80;;
54517;SDS011;40423;53.176;6.002;2023-07-28T09:50:01;3.72;;;3.00;;
54517;SDS011;40423;53.176;6.002;2023-07-28T09:52:31;4.82;;;3.10;;
54517;SDS011;40423;53.176;6.002;2023-07-28T09:55:08;4.35;;;3.30;;
54517;SDS011;40423;53.176;6.002;2023-07-28T09:57:39;3.88;;;3.17;;
54517;SDS011;40423;53.176;6.002;2023-07-28T10:00:10;5.15;;;3.05;;
54517;SDS011;40423;53.176;6.002;2023-07-28T10:02:38;5.40;;;2.95;;
54517;SDS011;40423;53.176;6.002;2023-07-28T10:05:06;3.47;;;2.83;;
54517;SDS011;40423;53.176;6.002;2023-07-28T10:07:36;4.47;;;2.80;;
54517;SDS011;40423;53.176;6.002;2023-07-28T10:10:04;5.05;;;2.60;;
54517;SDS011;40423;53.176;6.002;2023-07-28T10:12:52;5.15;;;2.83;;
54517;SDS011;40423;53.176;6.002;2023-07-28T10:15:20;4.80;;;3.15;;
54517;SDS011;40423;53.176;6.002;2023-07-28T10:17:55;4.22;;;2.90;;
54517;SDS011;40423;53.176;6.002;2023-07-28T10:20:35;3.40;;;2.70;;
54517;SDS011;40423;53.176;6.002;2023-07-28T10:23:13;4.20;;;2.58;;
54517;SDS011;40423;53.176;6.002;2023-07-28T10:25:40;7.65;;;2.78;;
54517;SDS011;40423;53.176;6.002;2023-07-28T10:28:07;3.92;;;2.90;;
54517;SDS011;40423;53.176;6.002;2023-07-28T10:30:53;4.43;;;2.88;;
54517;SDS011;40423;53.176;6.002;2023-07-28T10:33:33;4.00;;;2.92;;
54517;SDS011;40423;53.176;6.002;2023-07-28T10:36:11;4.55;;;2.83;;
54517;SDS011;40423;53.176;6.002;2023-07-28T10:38:39;4.68;;;3.53;;
54517;SDS011;40423;53.176;6.002;2023-07-28T10:41:09;4.15;;;3.00;;
54517;SDS011;40423;53.176;6.002;2023-07-28T10:43:44;6.85;;;3.03;;
54517;SDS011;40423;53.176;6.002;2023-07-28T10:46:15;5.28;;;2.70;;
54517;SDS011;40423;53.176;6.002;2023-07-28T10:48:43;2.97;;;2.35;;
54517;SDS011;40423;53.176;6.002;2023-07-28T10:51:11;2.10;;;1.88;;
54517;SDS011;40423;53.176;6.002;2023-07-28T10:53:37;2.13;;;1.75;;
54517;SDS011;40423;53.176;6.002;2023-07-28T10:56:03;2.42;;;1.88;;
54517;SDS011;40423;53.176;6.002;2023-07-28T10:58:33;2.90;;;2.13;;
54517;SDS011;40423;53.176;6.002;2023-07-28T11:01:01;3.20;;;2.08;;
54517;SDS011;40423;53.176;6.002;2023-07-28T11:03:27;2.40;;;1.52;;
54517;SDS011;40423;53.176;6.002;2023-07-28T11:05:54;4.72;;;2.28;;
54517;SDS011;40423;53.176;6.002;2023-07-28T11:08:21;3.50;;;2.25;;
54517;SDS011;40423;53.176;6.002;2023-07-28T11:10:47;2.55;;;1.70;;
54517;SDS011;40423;53.176;6.002;2023-07-28T11:13:16;3.65;;;1.98;;
54517;SDS011;40423;53.176;6.002;2023-07-28T11:15:42;2.60;;;1.65;;
54517;SDS011;40423;53.176;6.002;2023-07-28T11:18:08;1.67;;;1.42;;
54517;SDS011;40423;53.176;6.002;2023-07-28T11:20:34;2.20;;;1.50;;
54517;SDS011;40423;53.176;6.002;2023-07-28T11:23:01;9.95;;;4.72;;
54517;SDS011;40423;53.176;6.002;2023-07-28T11:25:29;7.03;;;2.53;;
54517;SDS011;40423;53.176;6.002;2023-07-28T11:27:56;5.15;;;1.70;;
54517;SDS011;40423;53.176;6.002;2023-07-28T11:30:23;2.70;;;1.73;;
54517;SDS011;40423;53.176;6.002;2023-07-28T11:32:52;1.70;;;1.40;;
54517;SDS011;40423;53.176;6.002;2023-07-28T11:35:21;3.58;;;1.55;;
54517;SDS011;40423;53.176;6.002;2023-07-28T11:37:48;4.07;;;2.13;;
54517;SDS011;40423;53.176;6.002;2023-07-28T11:40:16;2.22;;;1.50;;
54517;SDS011;40423;53.176;6.002;2023-07-28T11:45:16;2.58;;;1.88;;
54517;SDS011;40423;53.176;6.002;2023-07-28T11:47:59;3.05;;;1.92;;
54517;SDS011;40423;53.176;6.002;2023-07-28T11:50:28;2.72;;;1.60;;
54517;SDS011;40423;53.176;6.002;2023-07-28T11:52:58;3.65;;;1.90;;
54517;SDS011;40423;53.176;6.002;2023-07-28T11:55:25;2.72;;;1.73;;
54517;SDS011;40423;53.176;6.002;2023-07-28T11:57:52;3.08;;;1.90;;
54517;SDS011;40423;53.176;6.002;2023-07-28T12:00:18;6.38;;;2.45;;
54517;SDS011;40423;53.176;6.002;2023-07-28T12:02:59;4.35;;;2.10;;
54517;SDS011;40423;53.176;6.002;2023-07-28T12:05:29;2.70;;;1.60;;
54517;SDS011;40423;53.176;6.002;2023-07-28T12:07:55;2.88;;;1.50;;
54517;SDS011;40423;53.176;6.002;2023-07-28T12:10:21;3.65;;;1.77;;
54517;SDS011;40423;53.176;6.002;2023-07-28T12:12:47;2.30;;;1.70;;
54517;SDS011;40423;53.176;6.002;2023-07-28T12:15:26;2.40;;;1.80;;
54517;SDS011;40423;53.176;6.002;2023-07-28T12:18:14;2.13;;;1.70;;
54517;SDS011;40423;53.176;6.002;2023-07-28T12:20:42;2.28;;;1.92;;
54517;SDS011;40423;53.176;6.002;2023-07-28T12:23:16;3.10;;;1.65;;
54517;SDS011;40423;53.176;6.002;2023-07-28T12:25:43;4.30;;;2.15;;
54517;SDS011;40423;53.176;6.002;2023-07-28T12:28:09;2.78;;;1.67;;
54517;SDS011;40423;53.176;6.002;2023-07-28T12:30:36;2.65;;;1.65;;
54517;SDS011;40423;53.176;6.002;2023-07-28T12:33:02;3.22;;;2.13;;
54517;SDS011;40423;53.176;6.002;2023-07-28T12:35:29;2.83;;;2.33;;
54517;SDS011;40423;53.176;6.002;2023-07-28T12:38:02;3.25;;;2.35;;
54517;SDS011;40423;53.176;6.002;2023-07-28T12:40:33;4.45;;;2.33;;
54517;SDS011;40423;53.176;6.002;2023-07-28T12:42:59;4.40;;;2.40;;
54517;SDS011;40423;53.176;6.002;2023-07-28T12:45:26;2.92;;;2.00;;
54517;SDS011;40423;53.176;6.002;2023-07-28T12:47:52;3.70;;;2.35;;
54517;SDS011;40423;53.176;6.002;2023-07-28T12:50:22;5.20;;;2.28;;
54517;SDS011;40423;53.176;6.002;2023-07-28T12:52:49;2.55;;;2.10;;
54517;SDS011;40423;53.176;6.002;2023-07-28T12:55:15;4.72;;;2.28;;
54517;SDS011;40423;53.176;6.002;2023-07-28T12:57:44;3.13;;;2.03;;
54517;SDS011;40423;53.176;6.002;2023-07-28T13:00:13;4.32;;;2.20;;
54517;SDS011;40423;53.176;6.002;2023-07-28T13:02:44;7.13;;;2.50;;
54517;SDS011;40423;53.176;6.002;2023-07-28T13:05:11;19.48;;;3.70;;
54517;SDS011;40423;53.176;6.002;2023-07-28T13:07:38;7.13;;;1.98;;
54517;SDS011;40423;53.176;6.002;2023-07-28T13:10:06;132.05;;;16.85;;
54517;SDS011;40423;53.176;6.002;2023-07-28T13:12:37;20.83;;;5.82;;
54517;SDS011;40423;53.176;6.002;2023-07-28T13:15:03;4.68;;;2.78;;
54517;SDS011;40423;53.176;6.002;2023-07-28T13:17:29;402.40;;;47.97;;
54517;SDS011;40423;53.176;6.002;2023-07-28T13:19:55;35.90;;;6.13;;
54517;SDS011;40423;53.176;6.002;2023-07-28T13:22:22;16.02;;;3.63;;
54517;SDS011;40423;53.176;6.002;2023-07-28T13:24:48;7.07;;;2.78;;
54517;SDS011;40423;53.176;6.002;2023-07-28T13:27:14;5.32;;;2.60;;
54517;SDS011;40423;53.176;6.002;2023-07-28T13:29:40;5.05;;;2.22;;
54517;SDS011;40423;53.176;6.002;2023-07-28T13:32:15;4.80;;;3.20;;
54517;SDS011;40423;53.176;6.002;2023-07-28T13:34:48;3.92;;;3.20;;
54517;SDS011;40423;53.176;6.002;2023-07-28T13:37:13;5.20;;;2.60;;
54517;SDS011;40423;53.176;6.002;2023-07-28T13:39:39;5.32;;;3.67;;
54517;SDS011;40423;53.176;6.002;2023-07-28T13:42:06;5.40;;;3.45;;
54517;SDS011;40423;53.176;6.002;2023-07-28T13:44:31;4.68;;;2.55;;
54517;SDS011;40423;53.176;6.002;2023-07-28T13:46:57;3.33;;;2.42;;
54517;SDS011;40423;53.176;6.002;2023-07-28T13:49:23;3.42;;;2.45;;
54517;SDS011;40423;53.176;6.002;2023-07-28T13:51:49;8.02;;;2.63;;
54517;SDS011;40423;53.176;6.002;2023-07-28T13:54:14;3.50;;;2.45;;
54517;SDS011;40423;53.176;6.002;2023-07-28T13:56:43;4.68;;;3.50;;
54517;SDS011;40423;53.176;6.002;2023-07-28T13:59:09;4.47;;;3.30;;
54517;SDS011;40423;53.176;6.002;2023-07-28T14:01:34;4.45;;;3.08;;
54517;SDS011;40423;53.176;6.002;2023-07-28T14:04:00;5.78;;;3.30;;
54517;SDS011;40423;53.176;6.002;2023-07-28T14:06:29;5.30;;;3.13;;
54517;SDS011;40423;53.176;6.002;2023-07-28T14:08:54;3.22;;;2.67;;
54517;SDS011;40423;53.176;6.002;2023-07-28T14:11:20;5.60;;;3.72;;
54517;SDS011;40423;53.176;6.002;2023-07-28T14:13:49;4.50;;;3.35;;
54517;SDS011;40423;53.176;6.002;2023-07-28T14:16:17;4.78;;;3.15;;
54517;SDS011;40423;53.176;6.002;2023-07-28T14:18:42;5.50;;;4.38;;
54517;SDS011;40423;53.176;6.002;2023-07-28T14:21:09;5.20;;;3.05;;
54517;SDS011;40423;53.176;6.002;2023-07-28T14:23:35;3.22;;;2.42;;
54517;SDS011;40423;53.176;6.002;2023-07-28T14:26:00;4.82;;;2.92;;
54517;SDS011;40423;53.176;6.002;2023-07-28T14:28:26;3.80;;;2.95;;
54517;SDS011;40423;53.176;6.002;2023-07-28T14:30:52;4.30;;;3.60;;
54517;SDS011;40423;53.176;6.002;2023-07-28T14:33:18;5.68;;;3.83;;
54517;SDS011;40423;53.176;6.002;2023-07-28T14:35:47;4.53;;;3.25;;
54517;SDS011;40423;53.176;6.002;2023-07-28T14:38:14;6.75;;;3.70;;
54517;SDS011;40423;53.176;6.002;2023-07-28T14:40:44;5.95;;;3.80;;
54517;SDS011;40423;53.176;6.002;2023-07-28T14:43:14;4.65;;;3.58;;
54517;SDS011;40423;53.176;6.002;2023-07-28T14:45:40;7.65;;;4.05;;